sensor_id;sensor_type;location;lat;lon;timestamp;temperature;humidity
3876;DHT22;1953;51.222;6.624;2023-12-04T00:04:22;1.90;1.00
3876;DHT22;1953;51.222;6.624;2023-12-04T00:09:04;2.00;1.00
3876;DHT22;1953;51.222;6.624;2023-12-04T00:13:47;2.00;1.00
3876;DHT22;1953;51.222;6.624;2023-12-04T00:20:09;2.10;1.00
3876;DHT22;1953;51.222;6.624;2023-12-04T00:24:52;2.00;1.00
3876;DHT22;1953;51.222;6.624;2023-12-04T00:29:34;2.00;1.00
3876;DHT22;1953;51.222;6.624;2023-12-04T00:34:17;2.10;1.00
3876;DHT22;1953;51.222;6.624;2023-12-04T00:39:01;2.10;1.00
3876;DHT22;1953;51.222;6.624;2023-12-04T00:43:44;2.10;1.00
3876;DHT22;1953;51.222;6.624;2023-12-04T00:48:27;2.20;1.00
3876;DHT22;1953;51.222;6.624;2023-12-04T00:53:09;2.20;1.00
3876;DHT22;1953;51.222;6.624;2023-12-04T00:57:53;2.20;1.00
3876;DHT22;1953;51.222;6.624;2023-12-04T01:02:36;2.20;1.00
3876;DHT22;1953;51.222;6.624;2023-12-04T01:07:18;2.20;1.00
3876;DHT22;1953;51.222;6.624;2023-12-04T01:12:01;2.20;1.00
3876;DHT22;1953;51.222;6.624;2023-12-04T01:16:45;2.20;1.00
3876;DHT22;1953;51.222;6.624;2023-12-04T01:21:27;2.20;1.00
3876;DHT22;1953;51.222;6.624;2023-12-04T01:26:10;2.30;1.00
3876;DHT22;1953;51.222;6.624;2023-12-04T01:30:53;2.20;1.00
3876;DHT22;1953;51.222;6.624;2023-12-04T01:35:37;2.30;1.00
3876;DHT22;1953;51.222;6.624;2023-12-04T01:40:19;2.30;1.00
3876;DHT22;1953;51.222;6.624;2023-12-04T01:45:02;2.30;1.00
3876;DHT22;1953;51.222;6.624;2023-12-04T01:49:45;2.20;1.00
3876;DHT22;1953;51.222;6.624;2023-12-04T01:54:29;2.20;1.00
3876;DHT22;1953;51.222;6.624;2023-12-04T01:59:12;2.30;1.00
3876;DHT22;1953;51.222;6.624;2023-12-04T02:03:55;2.30;1.00
3876;DHT22;1953;51.222;6.624;2023-12-04T02:08:40;2.20;1.00
3876;DHT22;1953;51.222;6.624;2023-12-04T02:13:24;2.20;1.00
3876;DHT22;1953;51.222;6.624;2023-12-04T02:18:07;2.20;1.00
3876;DHT22;1953;51.222;6.624;2023-12-04T02:22:49;2.30;1.00
3876;DHT22;1953;51.222;6.624;2023-12-04T02:27:38;2.30;1.00
3876;DHT22;1953;51.222;6.624;2023-12-04T02:32:22;2.30;1.00
3876;DHT22;1953;51.222;6.624;2023-12-04T02:37:06;2.30;1.00
3876;DHT22;1953;51.222;6.624;2023-12-04T02:41:50;2.30;1.00
3876;DHT22;1953;51.222;6.624;2023-12-04T02:46:34;2.30;1.00
3876;DHT22;1953;51.222;6.624;2023-12-04T02:51:17;2.30;1.00
3876;DHT22;1953;51.222;6.624;2023-12-04T02:55:59;2.30;1.00
3876;DHT22;1953;51.222;6.624;2023-12-04T03:00:42;2.30;1.00
3876;DHT22;1953;51.222;6.624;2023-12-04T03:05:26;2.30;1.00
3876;DHT22;1953;51.222;6.624;2023-12-04T03:10:08;2.30;1.00
3876;DHT22;1953;51.222;6.624;2023-12-04T03:14:51;2.30;1.00
3876;DHT22;1953;51.222;6.624;2023-12-04T03:19:33;2.30;1.00
3876;DHT22;1953;51.222;6.624;2023-12-04T03:24:17;2.20;1.00
3876;DHT22;1953;51.222;6.624;2023-12-04T03:29:00;2.20;1.00
3876;DHT22;1953;51.222;6.624;2023-12-04T03:33:42;2.20;1.00
3876;DHT22;1953;51.222;6.624;2023-12-04T03:38:25;2.30;1.00
3876;DHT22;1953;51.222;6.624;2023-12-04T03:43:09;2.30;1.00
3876;DHT22;1953;51.222;6.624;2023-12-04T03:47:51;2.30;1.00
3876;DHT22;1953;51.222;6.624;2023-12-04T03:52:33;2.20;1.00
3876;DHT22;1953;51.222;6.624;2023-12-04T03:57:16;2.20;1.00
3876;DHT22;1953;51.222;6.624;2023-12-04T04:02:00;2.20;1.00
3876;DHT22;1953;51.222;6.624;2023-12-04T04:06:42;2.20;1.00
3876;DHT22;1953;51.222;6.624;2023-12-04T04:11:25;2.20;1.00
3876;DHT22;1953;51.222;6.624;2023-12-04T04:16:12;2.20;1.00
3876;DHT22;1953;51.222;6.624;2023-12-04T04:20:56;2.30;1.00
3876;DHT22;1953;51.222;6.624;2023-12-04T04:25:38;2.30;1.00
3876;DHT22;1953;51.222;6.624;2023-12-04T04:30:21;2.30;1.00
3876;DHT22;1953;51.222;6.624;2023-12-04T04:35:04;2.30;1.00
3876;DHT22;1953;51.222;6.624;2023-12-04T04:39:48;2.30;1.00
3876;DHT22;1953;51.222;6.624;2023-12-04T04:44:30;2.30;1.00
3876;DHT22;1953;51.222;6.624;2023-12-04T04:49:13;2.30;1.00
3876;DHT22;1953;51.222;6.624;2023-12-04T04:53:55;2.30;1.00
3876;DHT22;1953;51.222;6.624;2023-12-04T04:58:39;2.30;1.00
3876;DHT22;1953;51.222;6.624;2023-12-04T05:03:21;2.30;1.00
3876;DHT22;1953;51.222;6.624;2023-12-04T05:08:04;2.30;1.00
3876;DHT22;1953;51.222;6.624;2023-12-04T05:12:47;2.30;1.00
3876;DHT22;1953;51.222;6.624;2023-12-04T05:17:30;2.20;1.00
3876;DHT22;1953;51.222;6.624;2023-12-04T05:22:13;2.20;1.00
3876;DHT22;1953;51.222;6.624;2023-12-04T05:26:55;2.10;1.00
3876;DHT22;1953;51.222;6.624;2023-12-04T05:31:38;2.10;1.00
3876;DHT22;1953;51.222;6.624;2023-12-04T05:36:22;2.10;1.00
3876;DHT22;1953;51.222;6.624;2023-12-04T05:41:04;2.10;1.00
3876;DHT22;1953;51.222;6.624;2023-12-04T05:45:47;2.10;1.00
3876;DHT22;1953;51.222;6.624;2023-12-04T05:50:29;2.20;1.00
3876;DHT22;1953;51.222;6.624;2023-12-04T05:55:13;2.20;1.00
3876;DHT22;1953;51.222;6.624;2023-12-04T05:59:56;2.20;1.00
3876;DHT22;1953;51.222;6.624;2023-12-04T06:04:38;2.20;1.00
3876;DHT22;1953;51.222;6.624;2023-12-04T06:09:21;2.20;1.00
3876;DHT22;1953;51.222;6.624;2023-12-04T06:14:05;2.20;1.00
3876;DHT22;1953;51.222;6.624;2023-12-04T06:18:48;2.20;1.00
3876;DHT22;1953;51.222;6.624;2023-12-04T06:23:31;2.20;1.00
3876;DHT22;1953;51.222;6.624;2023-12-04T06:28:14;2.20;1.00
3876;DHT22;1953;51.222;6.624;2023-12-04T06:32:58;2.10;1.00
3876;DHT22;1953;51.222;6.624;2023-12-04T06:37:41;2.00;1.00
3876;DHT22;1953;51.222;6.624;2023-12-04T06:42:25;2.10;1.00
3876;DHT22;1953;51.222;6.624;2023-12-04T06:47:08;2.20;1.00
3876;DHT22;1953;51.222;6.624;2023-12-04T06:51:53;2.20;1.00
3876;DHT22;1953;51.222;6.624;2023-12-04T06:56:35;2.30;1.00
3876;DHT22;1953;51.222;6.624;2023-12-04T07:01:18;2.20;1.00
3876;DHT22;1953;51.222;6.624;2023-12-04T07:06:01;2.20;1.00
3876;DHT22;1953;51.222;6.624;2023-12-04T07:10:45;2.20;1.00
3876;DHT22;1953;51.222;6.624;2023-12-04T07:15:27;2.20;1.00
3876;DHT22;1953;51.222;6.624;2023-12-04T07:20:10;2.20;1.00
3876;DHT22;1953;51.222;6.624;2023-12-04T07:24:54;2.30;1.00
3876;DHT22;1953;51.222;6.624;2023-12-04T07:29:37;2.20;1.00
3876;DHT22;1953;51.222;6.624;2023-12-04T07:34:20;2.20;1.00
3876;DHT22;1953;51.222;6.624;2023-12-04T07:39:03;2.20;1.00
3876;DHT22;1953;51.222;6.624;2023-12-04T07:43:47;2.20;1.00
3876;DHT22;1953;51.222;6.624;2023-12-04T07:48:31;2.20;1.00
3876;DHT22;1953;51.222;6.624;2023-12-04T07:53:14;2.20;1.00
3876;DHT22;1953;51.222;6.624;2023-12-04T07:57:56;2.20;1.00
3876;DHT22;1953;51.222;6.624;2023-12-04T08:02:39;2.20;1.00
3876;DHT22;1953;51.222;6.624;2023-12-04T08:07:23;2.30;1.00
3876;DHT22;1953;51.222;6.624;2023-12-04T08:12:06;2.40;1.00
3876;DHT22;1953;51.222;6.624;2023-12-04T08:16:50;2.50;1.00
3876;DHT22;1953;51.222;6.624;2023-12-04T08:21:33;2.40;1.00
3876;DHT22;1953;51.222;6.624;2023-12-04T08:26:22;2.50;1.00
3876;DHT22;1953;51.222;6.624;2023-12-04T08:31:05;2.30;1.00
3876;DHT22;1953;51.222;6.624;2023-12-04T08:35:49;2.40;1.00
3876;DHT22;1953;51.222;6.624;2023-12-04T08:40:32;2.60;1.00
3876;DHT22;1953;51.222;6.624;2023-12-04T08:45:16;2.70;1.00
3876;DHT22;1953;51.222;6.624;2023-12-04T08:49:59;2.80;1.00
3876;DHT22;1953;51.222;6.624;2023-12-04T08:54:42;2.80;1.00
3876;DHT22;1953;51.222;6.624;2023-12-04T08:59:24;2.90;1.00
3876;DHT22;1953;51.222;6.624;2023-12-04T09:04:09;3.00;1.00
3876;DHT22;1953;51.222;6.624;2023-12-04T09:08:52;3.00;1.00
3876;DHT22;1953;51.222;6.624;2023-12-04T09:13:35;3.00;1.00
3876;DHT22;1953;51.222;6.624;2023-12-04T09:18:17;3.00;1.00
3876;DHT22;1953;51.222;6.624;2023-12-04T09:23:01;3.00;1.00
3876;DHT22;1953;51.222;6.624;2023-12-04T09:27:44;3.00;1.00
3876;DHT22;1953;51.222;6.624;2023-12-04T09:32:26;3.00;1.00
3876;DHT22;1953;51.222;6.624;2023-12-04T09:37:09;3.00;1.00
3876;DHT22;1953;51.222;6.624;2023-12-04T09:41:53;3.10;1.00
3876;DHT22;1953;51.222;6.624;2023-12-04T09:46:36;3.10;1.00
3876;DHT22;1953;51.222;6.624;2023-12-04T09:51:20;3.00;1.00
3876;DHT22;1953;51.222;6.624;2023-12-04T09:56:04;3.10;1.00
3876;DHT22;1953;51.222;6.624;2023-12-04T10:00:49;3.10;1.00
3876;DHT22;1953;51.222;6.624;2023-12-04T10:09:38;3.10;1.00
3876;DHT22;1953;51.222;6.624;2023-12-04T10:14:21;3.30;1.00
3876;DHT22;1953;51.222;6.624;2023-12-04T10:19:19;3.30;1.00
3876;DHT22;1953;51.222;6.624;2023-12-04T10:24:03;3.40;1.00
3876;DHT22;1953;51.222;6.624;2023-12-04T10:28:59;3.40;1.00
3876;DHT22;1953;51.222;6.624;2023-12-04T10:33:41;3.40;1.00
3876;DHT22;1953;51.222;6.624;2023-12-04T10:38:25;3.50;1.00
3876;DHT22;1953;51.222;6.624;2023-12-04T10:43:14;3.60;1.00
3876;DHT22;1953;51.222;6.624;2023-12-04T10:47:57;3.50;1.00
3876;DHT22;1953;51.222;6.624;2023-12-04T10:52:40;3.40;1.00
3876;DHT22;1953;51.222;6.624;2023-12-04T10:57:27;3.50;1.00
3876;DHT22;1953;51.222;6.624;2023-12-04T11:02:20;3.40;1.00
3876;DHT22;1953;51.222;6.624;2023-12-04T11:07:03;3.40;1.00
3876;DHT22;1953;51.222;6.624;2023-12-04T11:11:51;3.40;1.00
3876;DHT22;1953;51.222;6.624;2023-12-04T11:16:41;3.40;1.00
3876;DHT22;1953;51.222;6.624;2023-12-04T11:21:28;3.50;1.00
3876;DHT22;1953;51.222;6.624;2023-12-04T11:26:12;3.60;1.00
3876;DHT22;1953;51.222;6.624;2023-12-04T11:30:54;3.50;1.00
3876;DHT22;1953;51.222;6.624;2023-12-04T11:35:39;3.50;1.00
3876;DHT22;1953;51.222;6.624;2023-12-04T11:40:22;3.40;1.00
3876;DHT22;1953;51.222;6.624;2023-12-04T11:45:05;3.50;1.00
3876;DHT22;1953;51.222;6.624;2023-12-04T11:49:48;3.40;1.00
3876;DHT22;1953;51.222;6.624;2023-12-04T11:54:55;3.40;1.00
3876;DHT22;1953;51.222;6.624;2023-12-04T11:59:39;3.50;1.00
3876;DHT22;1953;51.222;6.624;2023-12-04T12:04:21;3.50;1.00
3876;DHT22;1953;51.222;6.624;2023-12-04T12:09:04;3.50;1.00
3876;DHT22;1953;51.222;6.624;2023-12-04T12:13:49;3.40;1.00
3876;DHT22;1953;51.222;6.624;2023-12-04T12:21:09;3.40;1.00
3876;DHT22;1953;51.222;6.624;2023-12-04T12:25:52;3.40;1.00
3876;DHT22;1953;51.222;6.624;2023-12-04T12:30:35;3.30;1.00
3876;DHT22;1953;51.222;6.624;2023-12-04T12:35:17;3.40;1.00
3876;DHT22;1953;51.222;6.624;2023-12-04T12:40:01;3.30;1.00
3876;DHT22;1953;51.222;6.624;2023-12-04T12:44:46;3.20;1.00
3876;DHT22;1953;51.222;6.624;2023-12-04T12:49:28;3.20;1.00
3876;DHT22;1953;51.222;6.624;2023-12-04T12:54:11;3.20;1.00
3876;DHT22;1953;51.222;6.624;2023-12-04T12:58:55;3.20;1.00
3876;DHT22;1953;51.222;6.624;2023-12-04T13:03:38;3.20;1.00
3876;DHT22;1953;51.222;6.624;2023-12-04T13:08:21;3.20;1.00
3876;DHT22;1953;51.222;6.624;2023-12-04T13:13:03;3.30;1.00
3876;DHT22;1953;51.222;6.624;2023-12-04T13:17:47;3.20;1.00
3876;DHT22;1953;51.222;6.624;2023-12-04T13:22:30;3.20;1.00
3876;DHT22;1953;51.222;6.624;2023-12-04T13:27:14;3.30;1.00
3876;DHT22;1953;51.222;6.624;2023-12-04T13:31:56;3.20;1.00
3876;DHT22;1953;51.222;6.624;2023-12-04T13:36:41;3.20;1.00
3876;DHT22;1953;51.222;6.624;2023-12-04T13:41:24;3.10;1.00
3876;DHT22;1953;51.222;6.624;2023-12-04T13:46:24;3.10;1.00
3876;DHT22;1953;51.222;6.624;2023-12-04T13:51:09;3.00;1.00
3876;DHT22;1953;51.222;6.624;2023-12-04T13:55:53;2.90;1.00
3876;DHT22;1953;51.222;6.624;2023-12-04T14:00:53;2.90;1.00
3876;DHT22;1953;51.222;6.624;2023-12-04T14:05:36;3.00;1.00
3876;DHT22;1953;51.222;6.624;2023-12-04T14:10:19;3.00;1.00
3876;DHT22;1953;51.222;6.624;2023-12-04T14:15:03;3.00;1.00
3876;DHT22;1953;51.222;6.624;2023-12-04T14:19:46;3.10;1.00
3876;DHT22;1953;51.222;6.624;2023-12-04T14:24:29;3.20;1.00
3876;DHT22;1953;51.222;6.624;2023-12-04T14:29:11;3.30;1.00
3876;DHT22;1953;51.222;6.624;2023-12-04T14:33:56;3.30;1.00
3876;DHT22;1953;51.222;6.624;2023-12-04T14:38:38;3.20;1.00
3876;DHT22;1953;51.222;6.624;2023-12-04T14:43:21;3.30;1.00
3876;DHT22;1953;51.222;6.624;2023-12-04T14:48:03;3.30;1.00
3876;DHT22;1953;51.222;6.624;2023-12-04T14:52:49;3.40;1.00
3876;DHT22;1953;51.222;6.624;2023-12-04T14:57:33;3.40;1.00
3876;DHT22;1953;51.222;6.624;2023-12-04T15:02:36;3.30;1.00
3876;DHT22;1953;51.222;6.624;2023-12-04T15:07:33;3.30;1.00
3876;DHT22;1953;51.222;6.624;2023-12-04T15:12:37;3.30;1.00
3876;DHT22;1953;51.222;6.624;2023-12-04T15:17:43;3.40;1.00
3876;DHT22;1953;51.222;6.624;2023-12-04T15:22:31;3.30;1.00
3876;DHT22;1953;51.222;6.624;2023-12-04T15:27:14;3.30;1.00
3876;DHT22;1953;51.222;6.624;2023-12-04T15:31:58;3.30;1.00
3876;DHT22;1953;51.222;6.624;2023-12-04T15:36:41;3.20;1.00
3876;DHT22;1953;51.222;6.624;2023-12-04T15:41:23;3.20;1.00
3876;DHT22;1953;51.222;6.624;2023-12-04T15:46:06;3.10;1.00
3876;DHT22;1953;51.222;6.624;2023-12-04T15:50:50;3.10;1.00
3876;DHT22;1953;51.222;6.624;2023-12-04T15:55:32;3.00;1.00
3876;DHT22;1953;51.222;6.624;2023-12-04T16:00:16;3.20;1.00
3876;DHT22;1953;51.222;6.624;2023-12-04T16:04:59;3.10;1.00
3876;DHT22;1953;51.222;6.624;2023-12-04T16:09:43;3.10;1.00
3876;DHT22;1953;51.222;6.624;2023-12-04T16:14:25;3.10;1.00
3876;DHT22;1953;51.222;6.624;2023-12-04T16:19:08;3.10;1.00
3876;DHT22;1953;51.222;6.624;2023-12-04T16:23:51;3.10;1.00
3876;DHT22;1953;51.222;6.624;2023-12-04T16:28:39;3.00;1.00
3876;DHT22;1953;51.222;6.624;2023-12-04T16:33:21;3.00;1.00
3876;DHT22;1953;51.222;6.624;2023-12-04T16:38:04;3.00;1.00
3876;DHT22;1953;51.222;6.624;2023-12-04T16:42:48;3.00;1.00
3876;DHT22;1953;51.222;6.624;2023-12-04T16:47:32;3.10;1.00
3876;DHT22;1953;51.222;6.624;2023-12-04T16:52:15;3.10;1.00
3876;DHT22;1953;51.222;6.624;2023-12-04T16:56:58;3.10;1.00
3876;DHT22;1953;51.222;6.624;2023-12-04T17:01:40;3.10;1.00
3876;DHT22;1953;51.222;6.624;2023-12-04T17:06:24;3.20;1.00
3876;DHT22;1953;51.222;6.624;2023-12-04T17:11:09;3.10;1.00
3876;DHT22;1953;51.222;6.624;2023-12-04T17:15:51;3.10;1.00
3876;DHT22;1953;51.222;6.624;2023-12-04T17:20:34;3.10;1.00
3876;DHT22;1953;51.222;6.624;2023-12-04T17:25:18;3.00;1.00
3876;DHT22;1953;51.222;6.624;2023-12-04T17:30:00;3.10;1.00
3876;DHT22;1953;51.222;6.624;2023-12-04T17:34:43;3.10;1.00
3876;DHT22;1953;51.222;6.624;2023-12-04T17:39:26;3.00;1.00
3876;DHT22;1953;51.222;6.624;2023-12-04T17:44:10;3.10;1.00
3876;DHT22;1953;51.222;6.624;2023-12-04T17:48:52;3.30;1.00
3876;DHT22;1953;51.222;6.624;2023-12-04T17:53:35;3.30;1.00
3876;DHT22;1953;51.222;6.624;2023-12-04T17:58:17;3.30;1.00
3876;DHT22;1953;51.222;6.624;2023-12-04T18:03:01;3.20;1.00
3876;DHT22;1953;51.222;6.624;2023-12-04T18:07:45;3.20;1.00
3876;DHT22;1953;51.222;6.624;2023-12-04T18:12:27;3.20;1.00
3876;DHT22;1953;51.222;6.624;2023-12-04T18:17:10;3.30;1.00
3876;DHT22;1953;51.222;6.624;2023-12-04T18:21:54;3.30;1.00
3876;DHT22;1953;51.222;6.624;2023-12-04T18:26:37;3.30;1.00
3876;DHT22;1953;51.222;6.624;2023-12-04T18:31:24;3.20;1.00
3876;DHT22;1953;51.222;6.624;2023-12-04T18:36:07;3.30;1.00
3876;DHT22;1953;51.222;6.624;2023-12-04T18:40:52;3.20;1.00
3876;DHT22;1953;51.222;6.624;2023-12-04T18:45:35;3.30;1.00
3876;DHT22;1953;51.222;6.624;2023-12-04T18:50:18;3.30;1.00
3876;DHT22;1953;51.222;6.624;2023-12-04T18:55:02;3.30;1.00
3876;DHT22;1953;51.222;6.624;2023-12-04T18:59:46;3.30;1.00
3876;DHT22;1953;51.222;6.624;2023-12-04T19:04:29;3.30;1.00
3876;DHT22;1953;51.222;6.624;2023-12-04T19:09:15;3.30;1.00
3876;DHT22;1953;51.222;6.624;2023-12-04T19:13:58;3.30;1.00
3876;DHT22;1953;51.222;6.624;2023-12-04T19:18:42;3.40;1.00
3876;DHT22;1953;51.222;6.624;2023-12-04T19:23:25;3.50;1.00
3876;DHT22;1953;51.222;6.624;2023-12-04T19:28:08;3.50;1.00
3876;DHT22;1953;51.222;6.624;2023-12-04T19:32:50;3.60;1.00
3876;DHT22;1953;51.222;6.624;2023-12-04T19:37:34;3.60;1.00
3876;DHT22;1953;51.222;6.624;2023-12-04T19:42:17;3.60;1.00
3876;DHT22;1953;51.222;6.624;2023-12-04T19:46:59;3.60;1.00
3876;DHT22;1953;51.222;6.624;2023-12-04T19:51:42;3.60;1.00
3876;DHT22;1953;51.222;6.624;2023-12-04T19:56:27;3.60;1.00
3876;DHT22;1953;51.222;6.624;2023-12-04T20:01:09;3.70;1.00
3876;DHT22;1953;51.222;6.624;2023-12-04T20:05:53;3.70;1.00
3876;DHT22;1953;51.222;6.624;2023-12-04T20:10:36;3.70;1.00
3876;DHT22;1953;51.222;6.624;2023-12-04T20:15:20;3.70;1.00
3876;DHT22;1953;51.222;6.624;2023-12-04T20:20:03;3.80;1.00
3876;DHT22;1953;51.222;6.624;2023-12-04T20:24:46;3.80;1.00
3876;DHT22;1953;51.222;6.624;2023-12-04T20:29:29;3.80;1.00
3876;DHT22;1953;51.222;6.624;2023-12-04T20:34:13;3.70;1.00
3876;DHT22;1953;51.222;6.624;2023-12-04T20:38:55;3.70;1.00
3876;DHT22;1953;51.222;6.624;2023-12-04T20:43:38;3.80;1.00
3876;DHT22;1953;51.222;6.624;2023-12-04T20:48:21;3.80;1.00
3876;DHT22;1953;51.222;6.624;2023-12-04T20:53:05;3.80;1.00
3876;DHT22;1953;51.222;6.624;2023-12-04T20:57:47;3.90;1.00
3876;DHT22;1953;51.222;6.624;2023-12-04T21:02:30;4.00;1.00
3876;DHT22;1953;51.222;6.624;2023-12-04T21:07:13;4.00;1.00
3876;DHT22;1953;51.222;6.624;2023-12-04T21:11:58;4.00;1.00
3876;DHT22;1953;51.222;6.624;2023-12-04T21:16:40;3.90;1.00
3876;DHT22;1953;51.222;6.624;2023-12-04T21:21:23;4.00;1.00
3876;DHT22;1953;51.222;6.624;2023-12-04T21:26:06;4.00;1.00
3876;DHT22;1953;51.222;6.624;2023-12-04T21:30:50;4.10;1.00
3876;DHT22;1953;51.222;6.624;2023-12-04T21:35:33;4.10;1.00
3876;DHT22;1953;51.222;6.624;2023-12-04T21:40:16;4.10;1.00
3876;DHT22;1953;51.222;6.624;2023-12-04T21:44:58;4.10;1.00
3876;DHT22;1953;51.222;6.624;2023-12-04T21:49:42;4.10;1.00
3876;DHT22;1953;51.222;6.624;2023-12-04T21:54:26;4.20;1.00
3876;DHT22;1953;51.222;6.624;2023-12-04T21:59:09;4.30;1.00
3876;DHT22;1953;51.222;6.624;2023-12-04T22:03:51;4.30;1.00
3876;DHT22;1953;51.222;6.624;2023-12-04T22:08:35;4.30;1.00
3876;DHT22;1953;51.222;6.624;2023-12-04T22:13:18;4.30;1.00
3876;DHT22;1953;51.222;6.624;2023-12-04T22:18:00;4.30;1.00
3876;DHT22;1953;51.222;6.624;2023-12-04T22:22:43;4.40;1.00
3876;DHT22;1953;51.222;6.624;2023-12-04T22:27:27;4.40;1.00
3876;DHT22;1953;51.222;6.624;2023-12-04T22:32:09;4.50;1.00
3876;DHT22;1953;51.222;6.624;2023-12-04T22:36:51;4.50;1.00
3876;DHT22;1953;51.222;6.624;2023-12-04T22:41:34;4.50;1.00
3876;DHT22;1953;51.222;6.624;2023-12-04T22:46:18;4.50;1.00
3876;DHT22;1953;51.222;6.624;2023-12-04T22:51:00;4.50;1.00
3876;DHT22;1953;51.222;6.624;2023-12-04T22:55:43;4.60;1.00
3876;DHT22;1953;51.222;6.624;2023-12-04T23:00:25;4.60;1.00
3876;DHT22;1953;51.222;6.624;2023-12-04T23:05:10;4.60;1.00
3876;DHT22;1953;51.222;6.624;2023-12-04T23:09:52;4.70;1.00
3876;DHT22;1953;51.222;6.624;2023-12-04T23:14:35;4.70;1.00
3876;DHT22;1953;51.222;6.624;2023-12-04T23:19:17;4.70;1.00
3876;DHT22;1953;51.222;6.624;2023-12-04T23:24:01;4.70;1.00
3876;DHT22;1953;51.222;6.624;2023-12-04T23:28:44;4.80;1.00
3876;DHT22;1953;51.222;6.624;2023-12-04T23:33:27;4.80;1.00
3876;DHT22;1953;51.222;6.624;2023-12-04T23:38:09;4.80;1.00
3876;DHT22;1953;51.222;6.624;2023-12-04T23:42:53;4.80;1.00
3876;DHT22;1953;51.222;6.624;2023-12-04T23:47:35;4.80;1.00
3876;DHT22;1953;51.222;6.624;2023-12-04T23:52:18;4.90;1.00
3876;DHT22;1953;51.222;6.624;2023-12-04T23:57:00;5.00;1.00
